sensor_id;sensor_type;location;lat;lon;timestamp;P1;durP1;ratioP1;P2;durP2;ratioP2
68803;SDS011;55787;52.678;13.314;2022-12-29T00:00:14;5.63;;;1.00;;
68803;SDS011;55787;52.678;13.314;2022-12-29T00:02:45;6.97;;;1.30;;
68803;SDS011;55787;52.678;13.314;2022-12-29T00:05:11;8.55;;;1.50;;
68803;SDS011;55787;52.678;13.314;2022-12-29T00:07:39;6.45;;;1.40;;
68803;SDS011;55787;52.678;13.314;2022-12-29T00:10:06;5.97;;;1.20;;
68803;SDS011;55787;52.678;13.314;2022-12-29T00:12:33;7.50;;;1.27;;
68803;SDS011;55787;52.678;13.314;2022-12-29T00:15:32;5.97;;;1.20;;
68803;SDS011;55787;52.678;13.314;2022-12-29T00:18:08;6.50;;;1.13;;
68803;SDS011;55787;52.678;13.314;2022-12-29T00:20:35;8.25;;;1.52;;
68803;SDS011;55787;52.678;13.314;2022-12-29T00:23:21;6.88;;;1.02;;
68803;SDS011;55787;52.678;13.314;2022-12-29T00:26:13;6.82;;;1.10;;
68803;SDS011;55787;52.678;13.314;2022-12-29T00:29:00;7.93;;;1.17;;
68803;SDS011;55787;52.678;13.314;2022-12-29T00:31:45;6.57;;;1.20;;
68803;SDS011;55787;52.678;13.314;2022-12-29T00:34:31;4.80;;;1.00;;
68803;SDS011;55787;52.678;13.314;2022-12-29T00:37:16;5.57;;;0.90;;
68803;SDS011;55787;52.678;13.314;2022-12-29T00:39:43;5.68;;;0.80;;
68803;SDS011;55787;52.678;13.314;2022-12-29T00:42:28;6.70;;;1.30;;
68803;SDS011;55787;52.678;13.314;2022-12-29T00:45:13;11.25;;;1.63;;
68803;SDS011;55787;52.678;13.314;2022-12-29T00:47:40;6.07;;;1.30;;
68803;SDS011;55787;52.678;13.314;2022-12-29T00:50:07;5.95;;;1.10;;
68803;SDS011;55787;52.678;13.314;2022-12-29T00:52:34;5.85;;;0.90;;
68803;SDS011;55787;52.678;13.314;2022-12-29T00:55:00;6.77;;;1.13;;
68803;SDS011;55787;52.678;13.314;2022-12-29T00:57:27;6.32;;;1.00;;
68803;SDS011;55787;52.678;13.314;2022-12-29T00:59:53;5.57;;;1.00;;
68803;SDS011;55787;52.678;13.314;2022-12-29T01:02:20;5.97;;;0.95;;
68803;SDS011;55787;52.678;13.314;2022-12-29T01:04:47;5.63;;;1.10;;
68803;SDS011;55787;52.678;13.314;2022-12-29T01:07:14;7.03;;;1.00;;
68803;SDS011;55787;52.678;13.314;2022-12-29T01:09:41;6.45;;;1.00;;
68803;SDS011;55787;52.678;13.314;2022-12-29T01:12:26;6.13;;;1.40;;
68803;SDS011;55787;52.678;13.314;2022-12-29T01:15:09;6.50;;;1.30;;
68803;SDS011;55787;52.678;13.314;2022-12-29T01:17:37;6.80;;;1.15;;
68803;SDS011;55787;52.678;13.314;2022-12-29T01:20:04;6.43;;;1.50;;
68803;SDS011;55787;52.678;13.314;2022-12-29T01:22:31;7.13;;;1.00;;
68803;SDS011;55787;52.678;13.314;2022-12-29T01:24:58;6.50;;;1.40;;
68803;SDS011;55787;52.678;13.314;2022-12-29T01:27:24;5.45;;;1.05;;
68803;SDS011;55787;52.678;13.314;2022-12-29T01:29:52;7.32;;;1.58;;
68803;SDS011;55787;52.678;13.314;2022-12-29T01:32:19;7.03;;;1.30;;
68803;SDS011;55787;52.678;13.314;2022-12-29T01:34:45;5.45;;;1.13;;
68803;SDS011;55787;52.678;13.314;2022-12-29T01:37:12;6.80;;;1.25;;
68803;SDS011;55787;52.678;13.314;2022-12-29T01:39:39;5.88;;;1.15;;
68803;SDS011;55787;52.678;13.314;2022-12-29T01:42:08;6.10;;;1.27;;
68803;SDS011;55787;52.678;13.314;2022-12-29T01:47:21;5.72;;;1.10;;
68803;SDS011;55787;52.678;13.314;2022-12-29T01:49:53;6.57;;;1.10;;
68803;SDS011;55787;52.678;13.314;2022-12-29T01:52:21;8.70;;;1.10;;
68803;SDS011;55787;52.678;13.314;2022-12-29T01:54:51;6.45;;;1.00;;
68803;SDS011;55787;52.678;13.314;2022-12-29T01:57:22;6.57;;;1.10;;
68803;SDS011;55787;52.678;13.314;2022-12-29T02:00:00;6.43;;;1.00;;
68803;SDS011;55787;52.678;13.314;2022-12-29T02:02:30;5.97;;;1.20;;
68803;SDS011;55787;52.678;13.314;2022-12-29T02:04:59;5.68;;;1.00;;
68803;SDS011;55787;52.678;13.314;2022-12-29T02:07:33;5.95;;;1.33;;
68803;SDS011;55787;52.678;13.314;2022-12-29T02:10:00;6.23;;;1.23;;
68803;SDS011;55787;52.678;13.314;2022-12-29T02:12:28;5.90;;;1.30;;
68803;SDS011;55787;52.678;13.314;2022-12-29T02:14:56;6.50;;;1.45;;
68803;SDS011;55787;52.678;13.314;2022-12-29T02:31:31;5.90;;;1.20;;
68803;SDS011;55787;52.678;13.314;2022-12-29T02:37:03;4.73;;;0.87;;
68803;SDS011;55787;52.678;13.314;2022-12-29T02:42:22;5.63;;;0.90;;
68803;SDS011;55787;52.678;13.314;2022-12-29T02:45:08;5.18;;;0.98;;
68803;SDS011;55787;52.678;13.314;2022-12-29T02:47:49;6.20;;;1.10;;
68803;SDS011;55787;52.678;13.314;2022-12-29T02:50:26;6.63;;;1.27;;
68803;SDS011;55787;52.678;13.314;2022-12-29T02:53:01;7.05;;;1.20;;
68803;SDS011;55787;52.678;13.314;2022-12-29T02:55:31;4.72;;;0.75;;
68803;SDS011;55787;52.678;13.314;2022-12-29T03:03:33;6.67;;;1.00;;
68803;SDS011;55787;52.678;13.314;2022-12-29T03:06:13;5.90;;;0.90;;
68803;SDS011;55787;52.678;13.314;2022-12-29T03:12:47;5.20;;;0.93;;
68803;SDS011;55787;52.678;13.314;2022-12-29T03:18:02;5.97;;;0.83;;
68803;SDS011;55787;52.678;13.314;2022-12-29T03:20:40;6.28;;;0.95;;
68803;SDS011;55787;52.678;13.314;2022-12-29T03:23:11;5.80;;;1.00;;
68803;SDS011;55787;52.678;13.314;2022-12-29T03:25:41;5.65;;;1.10;;
68803;SDS011;55787;52.678;13.314;2022-12-29T03:28:11;8.70;;;0.90;;
68803;SDS011;55787;52.678;13.314;2022-12-29T03:30:42;6.97;;;0.90;;
68803;SDS011;55787;52.678;13.314;2022-12-29T03:33:12;4.72;;;0.57;;
68803;SDS011;55787;52.678;13.314;2022-12-29T03:35:44;5.97;;;0.90;;
68803;SDS011;55787;52.678;13.314;2022-12-29T03:38:17;6.70;;;1.10;;
68803;SDS011;55787;52.678;13.314;2022-12-29T03:40:48;5.32;;;0.85;;
68803;SDS011;55787;52.678;13.314;2022-12-29T03:43:19;5.13;;;1.10;;
68803;SDS011;55787;52.678;13.314;2022-12-29T03:45:46;4.93;;;0.90;;
68803;SDS011;55787;52.678;13.314;2022-12-29T03:48:12;5.00;;;0.70;;
68803;SDS011;55787;52.678;13.314;2022-12-29T03:50:40;6.82;;;1.15;;
68803;SDS011;55787;52.678;13.314;2022-12-29T03:53:07;5.78;;;0.90;;
68803;SDS011;55787;52.678;13.314;2022-12-29T03:55:34;6.53;;;0.80;;
68803;SDS011;55787;52.678;13.314;2022-12-29T03:58:00;5.00;;;0.80;;
68803;SDS011;55787;52.678;13.314;2022-12-29T04:00:27;5.20;;;1.00;;
68803;SDS011;55787;52.678;13.314;2022-12-29T04:02:54;5.20;;;0.70;;
68803;SDS011;55787;52.678;13.314;2022-12-29T04:05:21;6.68;;;0.90;;
68803;SDS011;55787;52.678;13.314;2022-12-29T04:07:48;6.23;;;0.90;;
68803;SDS011;55787;52.678;13.314;2022-12-29T04:10:14;4.97;;;0.82;;
68803;SDS011;55787;52.678;13.314;2022-12-29T04:12:41;6.35;;;1.00;;
68803;SDS011;55787;52.678;13.314;2022-12-29T04:15:09;4.57;;;0.73;;
68803;SDS011;55787;52.678;13.314;2022-12-29T04:17:35;5.30;;;0.80;;
68803;SDS011;55787;52.678;13.314;2022-12-29T04:20:02;5.27;;;0.87;;
68803;SDS011;55787;52.678;13.314;2022-12-29T04:22:56;5.55;;;1.10;;
68803;SDS011;55787;52.678;13.314;2022-12-29T04:25:24;5.90;;;0.73;;
68803;SDS011;55787;52.678;13.314;2022-12-29T04:27:51;5.30;;;0.77;;
68803;SDS011;55787;52.678;13.314;2022-12-29T04:30:18;5.38;;;0.90;;
68803;SDS011;55787;52.678;13.314;2022-12-29T04:32:45;5.93;;;1.10;;
68803;SDS011;55787;52.678;13.314;2022-12-29T04:35:11;5.47;;;0.93;;
68803;SDS011;55787;52.678;13.314;2022-12-29T04:37:38;5.22;;;0.82;;
68803;SDS011;55787;52.678;13.314;2022-12-29T04:40:05;5.30;;;0.80;;
68803;SDS011;55787;52.678;13.314;2022-12-29T04:42:32;4.65;;;0.60;;
68803;SDS011;55787;52.678;13.314;2022-12-29T04:44:59;5.27;;;0.70;;
68803;SDS011;55787;52.678;13.314;2022-12-29T04:47:26;6.40;;;1.05;;
68803;SDS011;55787;52.678;13.314;2022-12-29T04:49:52;5.50;;;1.00;;
68803;SDS011;55787;52.678;13.314;2022-12-29T04:52:19;4.60;;;0.73;;
68803;SDS011;55787;52.678;13.314;2022-12-29T04:54:46;6.28;;;1.00;;
68803;SDS011;55787;52.678;13.314;2022-12-29T04:57:12;5.53;;;0.90;;
68803;SDS011;55787;52.678;13.314;2022-12-29T04:59:39;5.28;;;0.80;;
68803;SDS011;55787;52.678;13.314;2022-12-29T05:02:06;5.72;;;1.00;;
68803;SDS011;55787;52.678;13.314;2022-12-29T05:04:33;5.68;;;0.98;;
68803;SDS011;55787;52.678;13.314;2022-12-29T05:06:59;5.47;;;0.82;;
68803;SDS011;55787;52.678;13.314;2022-12-29T05:09:26;5.37;;;0.90;;
68803;SDS011;55787;52.678;13.314;2022-12-29T05:11:52;5.38;;;0.90;;
68803;SDS011;55787;52.678;13.314;2022-12-29T05:14:19;8.18;;;0.85;;
68803;SDS011;55787;52.678;13.314;2022-12-29T05:16:46;6.15;;;0.90;;
68803;SDS011;55787;52.678;13.314;2022-12-29T05:19:12;6.95;;;0.98;;
68803;SDS011;55787;52.678;13.314;2022-12-29T05:21:39;5.40;;;1.00;;
68803;SDS011;55787;52.678;13.314;2022-12-29T05:24:06;5.28;;;0.85;;
68803;SDS011;55787;52.678;13.314;2022-12-29T05:26:33;6.65;;;1.15;;
68803;SDS011;55787;52.678;13.314;2022-12-29T05:28:59;4.68;;;0.65;;
68803;SDS011;55787;52.678;13.314;2022-12-29T05:31:26;4.80;;;0.70;;
68803;SDS011;55787;52.678;13.314;2022-12-29T05:33:53;5.37;;;1.10;;
68803;SDS011;55787;52.678;13.314;2022-12-29T05:36:20;5.88;;;0.82;;
68803;SDS011;55787;52.678;13.314;2022-12-29T05:38:47;5.88;;;0.90;;
68803;SDS011;55787;52.678;13.314;2022-12-29T05:41:13;5.25;;;0.70;;
68803;SDS011;55787;52.678;13.314;2022-12-29T05:43:40;5.10;;;0.80;;
68803;SDS011;55787;52.678;13.314;2022-12-29T05:46:06;5.87;;;1.07;;
68803;SDS011;55787;52.678;13.314;2022-12-29T05:48:33;6.00;;;0.90;;
68803;SDS011;55787;52.678;13.314;2022-12-29T05:51:03;6.05;;;0.90;;
68803;SDS011;55787;52.678;13.314;2022-12-29T05:53:30;5.13;;;0.80;;
68803;SDS011;55787;52.678;13.314;2022-12-29T05:55:57;5.90;;;1.25;;
68803;SDS011;55787;52.678;13.314;2022-12-29T05:58:23;5.30;;;0.90;;
68803;SDS011;55787;52.678;13.314;2022-12-29T06:00:50;5.40;;;0.80;;
68803;SDS011;55787;52.678;13.314;2022-12-29T06:03:17;5.78;;;1.00;;
68803;SDS011;55787;52.678;13.314;2022-12-29T06:05:45;5.07;;;0.88;;
68803;SDS011;55787;52.678;13.314;2022-12-29T06:08:12;5.80;;;0.98;;
68803;SDS011;55787;52.678;13.314;2022-12-29T06:10:39;5.30;;;0.80;;
68803;SDS011;55787;52.678;13.314;2022-12-29T06:13:06;6.13;;;1.00;;
68803;SDS011;55787;52.678;13.314;2022-12-29T06:15:33;5.20;;;0.90;;
68803;SDS011;55787;52.678;13.314;2022-12-29T06:18:00;5.35;;;0.82;;
68803;SDS011;55787;52.678;13.314;2022-12-29T06:20:27;5.68;;;0.90;;
68803;SDS011;55787;52.678;13.314;2022-12-29T06:22:54;5.30;;;0.80;;
68803;SDS011;55787;52.678;13.314;2022-12-29T06:25:20;6.30;;;1.00;;
68803;SDS011;55787;52.678;13.314;2022-12-29T06:27:47;5.22;;;0.82;;
68803;SDS011;55787;52.678;13.314;2022-12-29T06:30:14;4.22;;;0.40;;
68803;SDS011;55787;52.678;13.314;2022-12-29T06:32:42;5.40;;;1.00;;
68803;SDS011;55787;52.678;13.314;2022-12-29T06:35:10;6.33;;;0.90;;
68803;SDS011;55787;52.678;13.314;2022-12-29T06:37:37;4.68;;;0.68;;
68803;SDS011;55787;52.678;13.314;2022-12-29T06:40:03;6.38;;;0.95;;
68803;SDS011;55787;52.678;13.314;2022-12-29T06:42:31;4.68;;;0.60;;
68803;SDS011;55787;52.678;13.314;2022-12-29T06:44:57;5.13;;;0.80;;
68803;SDS011;55787;52.678;13.314;2022-12-29T06:47:25;8.83;;;1.10;;
68803;SDS011;55787;52.678;13.314;2022-12-29T06:49:51;7.13;;;0.80;;
68803;SDS011;55787;52.678;13.314;2022-12-29T06:52:18;5.63;;;1.02;;
68803;SDS011;55787;52.678;13.314;2022-12-29T06:54:45;5.40;;;0.75;;
68803;SDS011;55787;52.678;13.314;2022-12-29T06:57:12;5.80;;;0.70;;
68803;SDS011;55787;52.678;13.314;2022-12-29T06:59:39;5.03;;;1.00;;
68803;SDS011;55787;52.678;13.314;2022-12-29T07:02:06;5.35;;;0.80;;
68803;SDS011;55787;52.678;13.314;2022-12-29T07:04:33;5.43;;;0.90;;
68803;SDS011;55787;52.678;13.314;2022-12-29T07:06:59;5.70;;;0.90;;
68803;SDS011;55787;52.678;13.314;2022-12-29T07:09:26;6.18;;;0.80;;
68803;SDS011;55787;52.678;13.314;2022-12-29T07:11:53;5.00;;;0.63;;
68803;SDS011;55787;52.678;13.314;2022-12-29T07:14:19;3.72;;;0.40;;
68803;SDS011;55787;52.678;13.314;2022-12-29T07:16:46;4.65;;;0.80;;
68803;SDS011;55787;52.678;13.314;2022-12-29T07:19:13;4.57;;;0.80;;
68803;SDS011;55787;52.678;13.314;2022-12-29T07:21:40;5.07;;;0.80;;
68803;SDS011;55787;52.678;13.314;2022-12-29T07:24:12;4.80;;;0.70;;
68803;SDS011;55787;52.678;13.314;2022-12-29T07:26:39;5.57;;;0.80;;
68803;SDS011;55787;52.678;13.314;2022-12-29T07:29:06;5.00;;;0.70;;
68803;SDS011;55787;52.678;13.314;2022-12-29T07:31:32;5.07;;;0.50;;
68803;SDS011;55787;52.678;13.314;2022-12-29T07:33:59;5.05;;;0.60;;
68803;SDS011;55787;52.678;13.314;2022-12-29T07:36:26;6.47;;;0.80;;
68803;SDS011;55787;52.678;13.314;2022-12-29T07:39:00;4.00;;;0.50;;
68803;SDS011;55787;52.678;13.314;2022-12-29T07:41:27;5.70;;;0.85;;
68803;SDS011;55787;52.678;13.314;2022-12-29T07:43:53;4.43;;;0.65;;
68803;SDS011;55787;52.678;13.314;2022-12-29T07:46:20;5.10;;;0.80;;
68803;SDS011;55787;52.678;13.314;2022-12-29T07:49:07;5.23;;;0.83;;
68803;SDS011;55787;52.678;13.314;2022-12-29T07:51:33;3.33;;;0.60;;
68803;SDS011;55787;52.678;13.314;2022-12-29T07:54:00;5.55;;;0.63;;
68803;SDS011;55787;52.678;13.314;2022-12-29T07:56:27;4.50;;;0.60;;
68803;SDS011;55787;52.678;13.314;2022-12-29T07:58:54;5.80;;;0.73;;
68803;SDS011;55787;52.678;13.314;2022-12-29T08:01:20;5.40;;;0.63;;
68803;SDS011;55787;52.678;13.314;2022-12-29T08:03:49;5.47;;;0.70;;
68803;SDS011;55787;52.678;13.314;2022-12-29T08:06:22;5.50;;;0.60;;
68803;SDS011;55787;52.678;13.314;2022-12-29T08:08:49;4.72;;;0.60;;
68803;SDS011;55787;52.678;13.314;2022-12-29T08:11:16;3.65;;;0.50;;
68803;SDS011;55787;52.678;13.314;2022-12-29T08:13:43;6.23;;;0.80;;
68803;SDS011;55787;52.678;13.314;2022-12-29T08:16:09;5.57;;;0.70;;
68803;SDS011;55787;52.678;13.314;2022-12-29T08:18:36;4.38;;;0.60;;
68803;SDS011;55787;52.678;13.314;2022-12-29T08:21:03;4.35;;;0.60;;
68803;SDS011;55787;52.678;13.314;2022-12-29T08:23:31;3.90;;;0.60;;
68803;SDS011;55787;52.678;13.314;2022-12-29T08:26:02;4.83;;;0.80;;
68803;SDS011;55787;52.678;13.314;2022-12-29T08:28:30;6.38;;;0.93;;
68803;SDS011;55787;52.678;13.314;2022-12-29T08:30:58;6.07;;;0.80;;
68803;SDS011;55787;52.678;13.314;2022-12-29T08:33:28;5.40;;;0.77;;
68803;SDS011;55787;52.678;13.314;2022-12-29T08:36:02;4.50;;;0.60;;
68803;SDS011;55787;52.678;13.314;2022-12-29T08:38:30;5.13;;;0.50;;
68803;SDS011;55787;52.678;13.314;2022-12-29T08:40:58;4.85;;;0.60;;
68803;SDS011;55787;52.678;13.314;2022-12-29T08:43:27;4.97;;;0.60;;
68803;SDS011;55787;52.678;13.314;2022-12-29T08:45:54;4.75;;;0.55;;
68803;SDS011;55787;52.678;13.314;2022-12-29T08:48:22;4.50;;;0.70;;
68803;SDS011;55787;52.678;13.314;2022-12-29T08:50:49;4.70;;;0.70;;
68803;SDS011;55787;52.678;13.314;2022-12-29T08:53:16;5.25;;;0.63;;
68803;SDS011;55787;52.678;13.314;2022-12-29T08:55:45;4.95;;;0.68;;
68803;SDS011;55787;52.678;13.314;2022-12-29T08:58:29;5.28;;;0.70;;
68803;SDS011;55787;52.678;13.314;2022-12-29T09:00:56;5.18;;;0.90;;
68803;SDS011;55787;52.678;13.314;2022-12-29T09:03:23;5.20;;;0.60;;
68803;SDS011;55787;52.678;13.314;2022-12-29T09:06:10;4.13;;;0.50;;
68803;SDS011;55787;52.678;13.314;2022-12-29T09:08:38;4.30;;;0.60;;
68803;SDS011;55787;52.678;13.314;2022-12-29T09:13:41;4.57;;;0.65;;
68803;SDS011;55787;52.678;13.314;2022-12-29T09:16:08;4.57;;;0.60;;
68803;SDS011;55787;52.678;13.314;2022-12-29T09:18:36;3.45;;;0.40;;
68803;SDS011;55787;52.678;13.314;2022-12-29T09:21:04;5.13;;;0.60;;
68803;SDS011;55787;52.678;13.314;2022-12-29T09:23:31;5.80;;;0.50;;
68803;SDS011;55787;52.678;13.314;2022-12-29T09:25:59;6.45;;;0.70;;
68803;SDS011;55787;52.678;13.314;2022-12-29T09:28:26;5.13;;;0.53;;
68803;SDS011;55787;52.678;13.314;2022-12-29T09:30:55;4.43;;;0.60;;
68803;SDS011;55787;52.678;13.314;2022-12-29T09:33:23;3.38;;;0.40;;
68803;SDS011;55787;52.678;13.314;2022-12-29T09:35:53;4.35;;;0.55;;
68803;SDS011;55787;52.678;13.314;2022-12-29T09:38:22;5.07;;;0.80;;
68803;SDS011;55787;52.678;13.314;2022-12-29T09:41:01;5.53;;;0.60;;
68803;SDS011;55787;52.678;13.314;2022-12-29T09:46:22;3.50;;;0.40;;
68803;SDS011;55787;52.678;13.314;2022-12-29T09:49:16;3.97;;;0.50;;
68803;SDS011;55787;52.678;13.314;2022-12-29T09:51:39;5.00;;;0.70;;
68803;SDS011;55787;52.678;13.314;2022-12-29T09:54:18;4.30;;;0.70;;
68803;SDS011;55787;52.678;13.314;2022-12-29T09:56:47;4.80;;;0.70;;
68803;SDS011;55787;52.678;13.314;2022-12-29T09:59:19;5.10;;;0.60;;
68803;SDS011;55787;52.678;13.314;2022-12-29T10:02:12;4.20;;;0.50;;
68803;SDS011;55787;52.678;13.314;2022-12-29T10:04:46;5.03;;;0.55;;
68803;SDS011;55787;52.678;13.314;2022-12-29T10:07:16;5.23;;;0.70;;
68803;SDS011;55787;52.678;13.314;2022-12-29T10:26:09;4.78;;;0.70;;
68803;SDS011;55787;52.678;13.314;2022-12-29T10:28:49;5.28;;;0.88;;
68803;SDS011;55787;52.678;13.314;2022-12-29T10:31:23;3.95;;;0.60;;
68803;SDS011;55787;52.678;13.314;2022-12-29T10:33:53;5.33;;;0.50;;
68803;SDS011;55787;52.678;13.314;2022-12-29T10:36:34;3.92;;;0.50;;
68803;SDS011;55787;52.678;13.314;2022-12-29T10:39:06;4.70;;;0.60;;
68803;SDS011;55787;52.678;13.314;2022-12-29T10:44:24;3.60;;;0.40;;
68803;SDS011;55787;52.678;13.314;2022-12-29T10:47:00;5.27;;;0.50;;
68803;SDS011;55787;52.678;13.314;2022-12-29T10:49:30;4.55;;;0.40;;
68803;SDS011;55787;52.678;13.314;2022-12-29T10:52:02;6.15;;;0.52;;
68803;SDS011;55787;52.678;13.314;2022-12-29T10:54:35;4.90;;;0.60;;
68803;SDS011;55787;52.678;13.314;2022-12-29T10:57:10;5.22;;;0.60;;
68803;SDS011;55787;52.678;13.314;2022-12-29T10:59:37;4.93;;;0.63;;
68803;SDS011;55787;52.678;13.314;2022-12-29T11:07:23;5.25;;;0.50;;
68803;SDS011;55787;52.678;13.314;2022-12-29T11:09:53;3.92;;;0.45;;
68803;SDS011;55787;52.678;13.314;2022-12-29T11:12:21;3.83;;;0.50;;
68803;SDS011;55787;52.678;13.314;2022-12-29T11:20:29;4.47;;;0.60;;
68803;SDS011;55787;52.678;13.314;2022-12-29T11:22:58;5.25;;;0.60;;
68803;SDS011;55787;52.678;13.314;2022-12-29T11:25:25;3.77;;;0.40;;
68803;SDS011;55787;52.678;13.314;2022-12-29T11:27:55;4.63;;;0.50;;
68803;SDS011;55787;52.678;13.314;2022-12-29T11:30:25;4.78;;;0.55;;
68803;SDS011;55787;52.678;13.314;2022-12-29T11:32:54;5.22;;;0.60;;
68803;SDS011;55787;52.678;13.314;2022-12-29T11:38:21;3.63;;;0.43;;
68803;SDS011;55787;52.678;13.314;2022-12-29T11:40:52;3.83;;;0.40;;
68803;SDS011;55787;52.678;13.314;2022-12-29T11:43:32;5.28;;;0.63;;
68803;SDS011;55787;52.678;13.314;2022-12-29T11:46:01;3.83;;;0.40;;
68803;SDS011;55787;52.678;13.314;2022-12-29T11:48:38;4.90;;;0.50;;
68803;SDS011;55787;52.678;13.314;2022-12-29T11:51:06;3.77;;;0.50;;
68803;SDS011;55787;52.678;13.314;2022-12-29T11:53:46;4.88;;;0.40;;
68803;SDS011;55787;52.678;13.314;2022-12-29T11:56:17;5.47;;;0.55;;
68803;SDS011;55787;52.678;13.314;2022-12-29T11:58:46;4.72;;;0.52;;
68803;SDS011;55787;52.678;13.314;2022-12-29T12:01:23;4.57;;;0.50;;
68803;SDS011;55787;52.678;13.314;2022-12-29T12:04:13;4.40;;;0.57;;
68803;SDS011;55787;52.678;13.314;2022-12-29T12:06:44;5.70;;;0.43;;
68803;SDS011;55787;52.678;13.314;2022-12-29T12:12:03;3.03;;;0.30;;
68803;SDS011;55787;52.678;13.314;2022-12-29T12:14:38;3.13;;;0.30;;
68803;SDS011;55787;52.678;13.314;2022-12-29T12:17:23;2.07;;;0.20;;
68803;SDS011;55787;52.678;13.314;2022-12-29T12:20:19;3.97;;;0.40;;
68803;SDS011;55787;52.678;13.314;2022-12-29T12:22:53;3.60;;;0.35;;
68803;SDS011;55787;52.678;13.314;2022-12-29T12:25:37;3.92;;;0.30;;
68803;SDS011;55787;52.678;13.314;2022-12-29T12:28:11;2.53;;;0.25;;
68803;SDS011;55787;52.678;13.314;2022-12-29T12:30:45;3.30;;;0.40;;
68803;SDS011;55787;52.678;13.314;2022-12-29T12:38:30;4.32;;;0.40;;
68803;SDS011;55787;52.678;13.314;2022-12-29T12:41:09;5.03;;;0.60;;
68803;SDS011;55787;52.678;13.314;2022-12-29T12:49:15;3.33;;;0.20;;
68803;SDS011;55787;52.678;13.314;2022-12-29T13:05:47;4.35;;;0.30;;
68803;SDS011;55787;52.678;13.314;2022-12-29T13:16:33;4.45;;;0.50;;
68803;SDS011;55787;52.678;13.314;2022-12-29T13:19:11;3.70;;;0.30;;
68803;SDS011;55787;52.678;13.314;2022-12-29T13:24:34;2.60;;;0.23;;
68803;SDS011;55787;52.678;13.314;2022-12-29T13:38:01;4.60;;;0.43;;
68803;SDS011;55787;52.678;13.314;2022-12-29T13:40:31;4.32;;;0.40;;
68803;SDS011;55787;52.678;13.314;2022-12-29T13:43:02;6.75;;;2.30;;
68803;SDS011;55787;52.678;13.314;2022-12-29T13:45:29;4.00;;;0.50;;
68803;SDS011;55787;52.678;13.314;2022-12-29T13:50:41;2.63;;;0.30;;
68803;SDS011;55787;52.678;13.314;2022-12-29T13:53:19;2.90;;;0.30;;
68803;SDS011;55787;52.678;13.314;2022-12-29T13:56:07;6.03;;;1.38;;
68803;SDS011;55787;52.678;13.314;2022-12-29T14:04:25;4.03;;;0.50;;
68803;SDS011;55787;52.678;13.314;2022-12-29T14:07:36;3.92;;;0.50;;
68803;SDS011;55787;52.678;13.314;2022-12-29T14:09:47;5.10;;;0.80;;
68803;SDS011;55787;52.678;13.314;2022-12-29T14:14:49;5.40;;;0.75;;
68803;SDS011;55787;52.678;13.314;2022-12-29T14:17:18;5.30;;;0.90;;
68803;SDS011;55787;52.678;13.314;2022-12-29T14:19:47;5.88;;;1.38;;
68803;SDS011;55787;52.678;13.314;2022-12-29T14:22:28;5.65;;;1.10;;
68803;SDS011;55787;52.678;13.314;2022-12-29T14:24:59;4.72;;;0.63;;
68803;SDS011;55787;52.678;13.314;2022-12-29T14:29:55;4.00;;;0.40;;
68803;SDS011;55787;52.678;13.314;2022-12-29T14:34:53;6.15;;;0.90;;
68803;SDS011;55787;52.678;13.314;2022-12-29T14:37:22;4.32;;;0.50;;
68803;SDS011;55787;52.678;13.314;2022-12-29T14:40:05;4.13;;;0.50;;
68803;SDS011;55787;52.678;13.314;2022-12-29T14:42:33;5.30;;;0.60;;
68803;SDS011;55787;52.678;13.314;2022-12-29T14:45:01;4.25;;;0.50;;
68803;SDS011;55787;52.678;13.314;2022-12-29T14:47:34;4.50;;;0.40;;
68803;SDS011;55787;52.678;13.314;2022-12-29T14:50:06;4.60;;;0.50;;
68803;SDS011;55787;52.678;13.314;2022-12-29T14:55:43;5.10;;;1.07;;
68803;SDS011;55787;52.678;13.314;2022-12-29T14:58:20;6.05;;;0.63;;
68803;SDS011;55787;52.678;13.314;2022-12-29T15:00:52;4.90;;;0.60;;
68803;SDS011;55787;52.678;13.314;2022-12-29T15:03:24;5.22;;;0.70;;
68803;SDS011;55787;52.678;13.314;2022-12-29T15:05:56;5.43;;;0.60;;
68803;SDS011;55787;52.678;13.314;2022-12-29T15:08:36;4.57;;;0.43;;
68803;SDS011;55787;52.678;13.314;2022-12-29T15:13:39;5.55;;;0.65;;
68803;SDS011;55787;52.678;13.314;2022-12-29T15:16:22;5.90;;;0.50;;
68803;SDS011;55787;52.678;13.314;2022-12-29T15:18:59;4.43;;;0.50;;
68803;SDS011;55787;52.678;13.314;2022-12-29T15:21:27;5.37;;;0.50;;
68803;SDS011;55787;52.678;13.314;2022-12-29T15:23:56;4.82;;;0.40;;
68803;SDS011;55787;52.678;13.314;2022-12-29T15:26:22;5.65;;;0.60;;
68803;SDS011;55787;52.678;13.314;2022-12-29T15:29:02;4.95;;;0.70;;
68803;SDS011;55787;52.678;13.314;2022-12-29T15:31:28;5.38;;;0.50;;
68803;SDS011;55787;52.678;13.314;2022-12-29T15:34:08;7.07;;;0.70;;
68803;SDS011;55787;52.678;13.314;2022-12-29T15:36:38;5.68;;;0.98;;
68803;SDS011;55787;52.678;13.314;2022-12-29T15:39:27;4.68;;;0.85;;
68803;SDS011;55787;52.678;13.314;2022-12-29T15:41:59;6.78;;;1.10;;
68803;SDS011;55787;52.678;13.314;2022-12-29T15:44:40;5.40;;;1.10;;
68803;SDS011;55787;52.678;13.314;2022-12-29T15:47:22;5.73;;;0.93;;
68803;SDS011;55787;52.678;13.314;2022-12-29T15:49:52;7.80;;;1.10;;
68803;SDS011;55787;52.678;13.314;2022-12-29T15:52:28;8.27;;;1.30;;
68803;SDS011;55787;52.678;13.314;2022-12-29T15:54:56;6.70;;;1.55;;
68803;SDS011;55787;52.678;13.314;2022-12-29T15:57:29;7.38;;;1.60;;
68803;SDS011;55787;52.678;13.314;2022-12-29T16:00:03;6.73;;;1.63;;
68803;SDS011;55787;52.678;13.314;2022-12-29T16:02:47;7.20;;;2.10;;
68803;SDS011;55787;52.678;13.314;2022-12-29T16:05:16;8.60;;;2.25;;
68803;SDS011;55787;52.678;13.314;2022-12-29T16:07:57;13.10;;;3.08;;
68803;SDS011;55787;52.678;13.314;2022-12-29T16:10:27;10.35;;;2.55;;
68803;SDS011;55787;52.678;13.314;2022-12-29T16:13:03;8.17;;;1.60;;
68803;SDS011;55787;52.678;13.314;2022-12-29T16:15:36;5.95;;;1.02;;
68803;SDS011;55787;52.678;13.314;2022-12-29T16:18:03;6.43;;;1.10;;
68803;SDS011;55787;52.678;13.314;2022-12-29T16:20:33;5.40;;;0.80;;
68803;SDS011;55787;52.678;13.314;2022-12-29T16:23:14;6.00;;;0.90;;
68803;SDS011;55787;52.678;13.314;2022-12-29T16:25:45;5.47;;;0.90;;
68803;SDS011;55787;52.678;13.314;2022-12-29T16:28:17;5.97;;;1.30;;
68803;SDS011;55787;52.678;13.314;2022-12-29T16:30:56;6.57;;;1.20;;
68803;SDS011;55787;52.678;13.314;2022-12-29T16:33:29;7.03;;;1.52;;
68803;SDS011;55787;52.678;13.314;2022-12-29T16:39:11;7.03;;;1.40;;
68803;SDS011;55787;52.678;13.314;2022-12-29T16:41:43;7.68;;;1.88;;
68803;SDS011;55787;52.678;13.314;2022-12-29T16:44:16;6.82;;;1.40;;
68803;SDS011;55787;52.678;13.314;2022-12-29T16:49:26;7.28;;;1.80;;
68803;SDS011;55787;52.678;13.314;2022-12-29T16:51:53;7.97;;;1.83;;
68803;SDS011;55787;52.678;13.314;2022-12-29T16:54:32;7.25;;;1.58;;
68803;SDS011;55787;52.678;13.314;2022-12-29T16:57:01;8.63;;;1.80;;
68803;SDS011;55787;52.678;13.314;2022-12-29T16:59:38;7.57;;;1.08;;
68803;SDS011;55787;52.678;13.314;2022-12-29T17:02:15;6.72;;;1.45;;
68803;SDS011;55787;52.678;13.314;2022-12-29T17:04:45;7.57;;;1.57;;
68803;SDS011;55787;52.678;13.314;2022-12-29T17:07:18;6.25;;;1.05;;
68803;SDS011;55787;52.678;13.314;2022-12-29T17:09:50;8.82;;;1.10;;
68803;SDS011;55787;52.678;13.314;2022-12-29T17:12:20;7.40;;;1.70;;
68803;SDS011;55787;52.678;13.314;2022-12-29T17:17:36;8.23;;;0.90;;
68803;SDS011;55787;52.678;13.314;2022-12-29T17:22:41;7.50;;;1.00;;
68803;SDS011;55787;52.678;13.314;2022-12-29T17:25:11;9.20;;;1.25;;
68803;SDS011;55787;52.678;13.314;2022-12-29T17:27:41;6.57;;;1.00;;
68803;SDS011;55787;52.678;13.314;2022-12-29T17:30:17;7.77;;;1.00;;